createdAt,value
2019-03-22T00:00:04.308Z,0
2019-03-22T00:01:04.055Z,0
2019-03-22T00:02:03.623Z,0
2019-03-22T00:03:03.850Z,0
2019-03-22T00:04:04.121Z,0
2019-03-22T00:05:04.143Z,0
2019-03-22T00:06:03.894Z,0
2019-03-22T00:07:04.175Z,0
2019-03-22T00:08:03.935Z,0
2019-03-22T00:09:03.705Z,0
2019-03-22T00:10:04.232Z,0
2019-03-22T00:11:04.094Z,0
2019-03-22T00:12:06.809Z,0
2019-03-22T00:13:03.766Z,0
2019-03-22T00:14:03.784Z,0
2019-03-22T00:15:03.806Z,0
2019-03-22T00:16:03.829Z,0
2019-03-22T00:17:04.180Z,0
2019-03-22T00:18:04.392Z,0
2019-03-22T00:19:04.413Z,0
2019-03-22T00:20:03.918Z,0
2019-03-22T00:21:03.936Z,0
2019-03-22T00:22:04.491Z,0
2019-03-22T00:23:03.961Z,0
2019-03-22T00:24:03.983Z,0
2019-03-22T00:25:04.262Z,0
2019-03-22T00:26:04.296Z,0
2019-03-22T00:27:15.561Z,0
2019-03-22T00:28:04.321Z,0
2019-03-22T00:29:04.339Z,0
2019-03-22T00:30:04.351Z,0
2019-03-22T00:31:04.387Z,0
2019-03-22T00:32:04.404Z,0
2019-03-22T00:33:04.688Z,0
2019-03-22T00:34:04.442Z,0
2019-03-22T00:35:04.453Z,0
2019-03-22T00:36:04.468Z,0
2019-03-22T00:37:04.493Z,0
2019-03-22T00:38:04.244Z,0
2019-03-22T00:39:04.556Z,0
2019-03-22T00:40:04.545Z,0
2019-03-22T00:41:04.572Z,0
2019-03-22T00:42:04.609Z,0
2019-03-22T00:43:04.604Z,0
2019-03-22T00:44:04.621Z,0
2019-03-22T00:45:04.830Z,0
2019-03-22T00:46:04.925Z,0
2019-03-22T00:47:04.947Z,0
2019-03-22T00:48:05.273Z,0
2019-03-22T00:49:05.241Z,0
2019-03-22T00:50:05.338Z,0
2019-03-22T00:51:04.759Z,0
2019-03-22T00:52:05.038Z,0
2019-03-22T00:53:04.537Z,0
2019-03-22T00:54:05.080Z,0
2019-03-22T00:55:05.214Z,0
2019-03-22T00:56:04.592Z,0
2019-03-22T00:57:04.614Z,0
2019-03-22T00:58:05.177Z,0
2019-03-22T00:59:04.911Z,0
2019-03-22T01:00:05.119Z,0
2019-03-22T01:01:04.954Z,0
2019-03-22T01:02:04.723Z,0
2019-03-22T01:03:04.991Z,0
2019-03-22T01:04:05.271Z,0
2019-03-22T01:05:05.030Z,0
2019-03-22T01:06:05.355Z,0
2019-03-22T01:07:04.814Z,0
2019-03-22T01:08:05.092Z,0
2019-03-22T01:09:05.106Z,0
2019-03-22T01:10:05.395Z,0
2019-03-22T01:11:04.880Z,0
2019-03-22T01:12:05.173Z,0
2019-03-22T01:13:05.444Z,0
2019-03-22T01:14:05.460Z,0
2019-03-22T01:15:05.221Z,0
2019-03-22T01:16:05.255Z,0
2019-03-22T01:17:05.017Z,0
2019-03-22T01:18:05.539Z,0
2019-03-22T01:19:05.292Z,0
2019-03-22T01:20:05.317Z,0
2019-03-22T01:21:05.600Z,0
2019-03-22T01:22:05.356Z,0
2019-03-22T01:23:05.630Z,0
2019-03-22T01:24:07.137Z,0
2019-03-22T01:25:05.153Z,0
2019-03-22T01:26:05.686Z,0
2019-03-22T01:27:05.190Z,0
2019-03-22T01:28:05.203Z,0
2019-03-22T01:29:05.760Z,0
2019-03-22T01:30:05.773Z,0
2019-03-22T01:31:05.787Z,0
2019-03-22T01:32:06.069Z,0
2019-03-22T01:33:05.576Z,0
2019-03-22T01:34:05.855Z,0
2019-03-22T01:35:05.857Z,0
2019-03-22T01:36:05.885Z,0
2019-03-22T01:37:05.912Z,0
2019-03-22T01:38:05.656Z,0
2019-03-22T01:39:05.412Z,0
2019-03-22T01:40:06.225Z,0
2019-03-22T01:41:05.708Z,0
2019-03-22T01:42:05.739Z,0
2019-03-22T01:43:06.009Z,0
2019-03-22T01:44:05.769Z,0
2019-03-22T01:45:06.047Z,0
2019-03-22T01:46:05.549Z,0
2019-03-22T01:47:05.577Z,0
2019-03-22T01:48:06.167Z,0
2019-03-22T01:49:06.126Z,0
2019-03-22T01:50:06.143Z,0
2019-03-22T01:51:05.641Z,0
2019-03-22T01:52:06.460Z,0
2019-03-22T01:53:05.941Z,0
2019-03-22T01:54:05.958Z,0
2019-03-22T01:55:05.711Z,0
2019-03-22T01:56:05.990Z,0
2019-03-22T01:57:06.273Z,0
2019-03-22T01:58:06.033Z,0
2019-03-22T01:59:06.061Z,0
2019-03-22T02:00:06.072Z,0
2019-03-22T02:01:06.618Z,0
2019-03-22T02:02:06.115Z,0
2019-03-22T02:03:06.395Z,0
2019-03-22T02:04:05.884Z,0
2019-03-22T02:05:06.694Z,0
2019-03-22T02:06:06.469Z,0
2019-03-22T02:07:06.480Z,0
2019-03-22T02:08:05.972Z,0
2019-03-22T02:09:06.503Z,0
2019-03-22T02:10:06.253Z,0
2019-03-22T02:11:06.296Z,0
2019-03-22T02:12:06.555Z,0
2019-03-22T02:13:06.613Z,0
2019-03-22T02:14:06.331Z,0
2019-03-22T02:15:06.878Z,0
2019-03-22T02:16:06.375Z,0
2019-03-22T02:17:06.141Z,0
2019-03-22T02:18:06.669Z,0
2019-03-22T02:19:06.428Z,0
2019-03-22T02:20:06.443Z,0
2019-03-22T02:21:06.455Z,0
2019-03-22T02:22:06.488Z,0
2019-03-22T02:23:06.787Z,0
2019-03-22T02:24:06.517Z,0
2019-03-22T02:25:06.806Z,0
2019-03-22T02:26:06.833Z,0
2019-03-22T02:27:06.315Z,0
2019-03-22T02:28:11.515Z,0
2019-03-22T02:29:06.348Z,0
2019-03-22T02:30:06.933Z,0
2019-03-22T02:31:06.942Z,0
2019-03-22T02:32:06.676Z,0
2019-03-22T02:33:06.959Z,0
2019-03-22T02:34:07.021Z,0
2019-03-22T02:35:06.990Z,0
2019-03-22T02:36:06.595Z,0
2019-03-22T02:37:07.033Z,0
2019-03-22T02:38:07.099Z,0
2019-03-22T02:39:07.369Z,0
2019-03-22T02:40:07.302Z,0
2019-03-22T02:41:06.851Z,0
2019-03-22T02:42:07.428Z,0
2019-03-22T02:43:07.194Z,0
2019-03-22T02:44:07.199Z,0
2019-03-22T02:45:07.555Z,0
2019-03-22T02:46:07.203Z,0
2019-03-22T02:47:06.954Z,0
2019-03-22T02:48:06.987Z,0
2019-03-22T02:49:07.014Z,0
2019-03-22T02:50:22.853Z,0
2019-03-22T02:51:07.050Z,0
2019-03-22T02:52:07.061Z,0
2019-03-22T02:53:07.390Z,0
2019-03-22T02:54:07.096Z,0
2019-03-22T02:55:07.708Z,0
2019-03-22T02:56:07.771Z,0
2019-03-22T02:57:07.671Z,0
2019-03-22T02:58:22.159Z,0
2019-03-22T02:59:07.200Z,0
2019-03-22T03:00:07.013Z,0
2019-03-22T03:01:07.526Z,0
2019-03-22T03:02:07.270Z,0
2019-03-22T03:03:06.994Z,0
2019-03-22T03:04:07.552Z,0
2019-03-22T03:05:07.283Z,0
2019-03-22T03:06:07.339Z,0
2019-03-22T03:07:07.602Z,0
2019-03-22T03:08:07.086Z,0
2019-03-22T03:09:07.363Z,0
2019-03-22T03:10:07.407Z,0
2019-03-22T03:11:07.668Z,0
2019-03-22T03:12:07.692Z,0
2019-03-22T03:13:07.712Z,0
2019-03-22T03:14:07.891Z,0
2019-03-22T03:15:07.507Z,0
2019-03-22T03:16:07.497Z,0
2019-03-22T03:17:07.512Z,0
2019-03-22T03:18:07.809Z,0
2019-03-22T03:19:07.822Z,0
2019-03-22T03:20:07.577Z,0
2019-03-22T03:21:07.320Z,0
2019-03-22T03:22:07.894Z,0
2019-03-22T03:23:07.883Z,0
2019-03-22T03:24:07.918Z,0
2019-03-22T03:25:07.927Z,0
2019-03-22T03:26:07.989Z,0
2019-03-22T03:27:08.245Z,0
2019-03-22T03:28:07.767Z,0
2019-03-22T03:29:07.997Z,0
2019-03-22T03:30:08.287Z,0
2019-03-22T03:31:07.801Z,0
2019-03-22T03:32:08.123Z,0
2019-03-22T03:33:07.877Z,0
2019-03-22T03:34:08.159Z,0
2019-03-22T03:35:07.826Z,0
2019-03-22T03:36:07.617Z,0
2019-03-22T03:37:07.903Z,0
2019-03-22T03:38:08.436Z,0
2019-03-22T03:39:07.676Z,0
2019-03-22T03:40:08.221Z,0
2019-03-22T03:41:07.703Z,0
2019-03-22T03:42:07.760Z,0
2019-03-22T03:43:08.016Z,0
2019-03-22T03:44:08.290Z,0
2019-03-22T03:45:08.033Z,0
2019-03-22T03:46:08.053Z,0
2019-03-22T03:47:10.396Z,0
2019-03-22T03:48:08.604Z,0
2019-03-22T03:49:08.448Z,0
2019-03-22T03:50:08.388Z,0
2019-03-22T03:51:08.406Z,0
2019-03-22T03:52:07.895Z,0
2019-03-22T03:53:08.181Z,0
2019-03-22T03:54:08.493Z,0
2019-03-22T03:55:08.502Z,0
2019-03-22T03:56:08.764Z,0
2019-03-22T03:57:08.297Z,0
2019-03-22T03:58:08.556Z,0
2019-03-22T03:59:08.358Z,0
2019-03-22T04:00:08.043Z,0
2019-03-22T04:01:08.329Z,0
2019-03-22T04:02:08.626Z,0
2019-03-22T04:03:08.739Z,0
2019-03-22T04:04:08.373Z,0
2019-03-22T04:05:08.432Z,0
2019-03-22T04:06:08.414Z,0
2019-03-22T04:07:08.463Z,0
2019-03-22T04:08:08.538Z,0
2019-03-22T04:09:08.751Z,0
2019-03-22T04:10:08.782Z,0
2019-03-22T04:11:08.789Z,0
2019-03-22T04:12:08.276Z,0
2019-03-22T04:13:08.563Z,0
2019-03-22T04:14:08.656Z,0
2019-03-22T04:15:08.596Z,0
2019-03-22T04:16:08.643Z,0
2019-03-22T04:17:08.367Z,0
2019-03-22T04:18:08.924Z,0
2019-03-22T04:19:08.652Z,0
2019-03-22T04:20:09.211Z,0
2019-03-22T04:21:08.691Z,0
2019-03-22T04:22:08.468Z,0
2019-03-22T04:23:08.778Z,0
2019-03-22T04:24:09.037Z,0
2019-03-22T04:25:09.415Z,0
2019-03-22T04:26:09.060Z,0
2019-03-22T04:27:08.806Z,0
2019-03-22T04:28:08.838Z,0
2019-03-22T04:29:15.195Z,0
2019-03-22T04:30:09.128Z,0
2019-03-22T04:31:08.880Z,0
2019-03-22T04:32:08.894Z,0
2019-03-22T04:33:11.189Z,0
2019-03-22T04:34:09.219Z,0
2019-03-22T04:35:08.756Z,0
2019-03-22T04:36:08.704Z,0
2019-03-22T04:37:08.726Z,0
2019-03-22T04:38:09.283Z,0
2019-03-22T04:39:09.041Z,0
2019-03-22T04:40:09.311Z,0
2019-03-22T04:41:09.058Z,0
2019-03-22T04:42:09.602Z,0
2019-03-22T04:43:09.096Z,0
2019-03-22T04:44:09.111Z,0
2019-03-22T04:45:09.136Z,0
2019-03-22T04:46:08.885Z,0
2019-03-22T04:47:09.170Z,0
2019-03-22T04:48:09.453Z,0
2019-03-22T04:49:09.288Z,0
2019-03-22T04:50:09.222Z,0
2019-03-22T04:51:09.517Z,0
2019-03-22T04:52:09.519Z,0
2019-03-22T04:53:09.536Z,0
2019-03-22T04:54:09.575Z,0
2019-03-22T04:55:09.582Z,0
2019-03-22T04:56:09.595Z,0
2019-03-22T04:57:09.620Z,0
2019-03-22T04:58:09.107Z,0
2019-03-22T04:59:21.216Z,0
2019-03-22T05:00:09.684Z,0
2019-03-22T05:01:09.425Z,4
2019-03-22T05:02:09.448Z,4
2019-03-22T05:03:09.729Z,0
2019-03-22T05:04:10.017Z,4
2019-03-22T05:05:09.769Z,4
2019-03-22T05:06:10.064Z,4
2019-03-22T05:07:09.537Z,4
2019-03-22T05:08:09.303Z,8
2019-03-22T05:09:09.576Z,8
2019-03-22T05:10:09.601Z,8
2019-03-22T05:11:09.878Z,12
2019-03-22T05:12:09.893Z,12
2019-03-22T05:13:09.647Z,16
2019-03-22T05:14:09.666Z,20
2019-03-22T05:15:09.688Z,24
2019-03-22T05:16:09.962Z,20
2019-03-22T05:17:09.990Z,28
2019-03-22T05:18:10.272Z,28
2019-03-22T05:19:10.286Z,32
2019-03-22T05:20:09.776Z,36
2019-03-22T05:21:10.055Z,40
2019-03-22T05:22:09.812Z,48
2019-03-22T05:23:10.098Z,52
2019-03-22T05:24:10.114Z,60
2019-03-22T05:25:10.141Z,64
2019-03-22T05:26:09.619Z,68
2019-03-22T05:27:09.647Z,80
2019-03-22T05:28:10.186Z,80
2019-03-22T05:29:10.479Z,92
2019-03-22T05:30:10.500Z,100
2019-03-22T05:31:10.257Z,108
2019-03-22T05:32:10.001Z,116
2019-03-22T05:33:10.022Z,124
2019-03-22T05:34:10.563Z,136
2019-03-22T05:35:12.088Z,148
2019-03-22T05:36:10.338Z,156
2019-03-22T05:37:10.093Z,168
2019-03-22T05:38:10.112Z,180
2019-03-22T05:39:09.861Z,192
2019-03-22T05:40:10.148Z,204
2019-03-22T05:41:10.691Z,216
2019-03-22T05:42:10.451Z,228
2019-03-22T05:43:10.468Z,240
2019-03-22T05:44:10.784Z,256
2019-03-22T05:45:09.974Z,268
2019-03-22T05:46:10.790Z,280
2019-03-22T05:47:10.278Z,292
2019-03-22T05:48:10.292Z,304
2019-03-22T05:49:10.303Z,312
2019-03-22T05:50:10.332Z,320
2019-03-22T05:51:10.615Z,340
2019-03-22T05:52:10.416Z,364
2019-03-22T05:53:10.116Z,400
2019-03-22T05:54:10.674Z,420
2019-03-22T05:55:10.158Z,432
2019-03-22T05:56:10.179Z,468
2019-03-22T05:57:20.205Z,492
2019-03-22T05:58:10.471Z,496
2019-03-22T05:59:10.756Z,500
2019-03-22T06:00:10.245Z,508
2019-03-22T06:01:10.798Z,520
2019-03-22T06:02:10.835Z,532
2019-03-22T06:03:10.570Z,540
2019-03-22T06:04:10.584Z,556
2019-03-22T06:05:11.132Z,560
2019-03-22T06:06:10.646Z,564
2019-03-22T06:07:11.168Z,568
2019-03-22T06:08:10.668Z,580
2019-03-22T06:09:10.422Z,604
2019-03-22T06:10:10.964Z,620
2019-03-22T06:11:10.976Z,644
2019-03-22T06:12:11.271Z,664
2019-03-22T06:13:10.753Z,676
2019-03-22T06:14:11.038Z,684
2019-03-22T06:15:10.787Z,716
2019-03-22T06:16:10.548Z,764
2019-03-22T06:17:11.451Z,796
2019-03-22T06:18:11.114Z,816
2019-03-22T06:19:10.866Z,828
2019-03-22T06:20:10.899Z,872
2019-03-22T06:21:10.905Z,908
2019-03-22T06:22:11.184Z,908
2019-03-22T06:23:11.202Z,908
2019-03-22T06:24:10.971Z,948
2019-03-22T06:25:11.270Z,960
2019-03-22T06:26:11.001Z,980
2019-03-22T06:27:11.011Z,1000
2019-03-22T06:28:11.023Z,1016
2019-03-22T06:29:11.343Z,1016
2019-03-22T06:30:11.071Z,1064
2019-03-22T06:31:11.092Z,1060
2019-03-22T06:32:11.364Z,1112
2019-03-22T06:33:11.645Z,1148
2019-03-22T06:34:11.138Z,1144
2019-03-22T06:35:11.173Z,1132
2019-03-22T06:36:11.699Z,1144
2019-03-22T06:37:11.467Z,1112
2019-03-22T06:38:11.493Z,1112
2019-03-22T06:39:11.279Z,1136
2019-03-22T06:40:11.779Z,1160
2019-03-22T06:41:11.545Z,1208
2019-03-22T06:42:11.290Z,1232
2019-03-22T06:43:11.572Z,1224
2019-03-22T06:44:11.323Z,1224
2019-03-22T06:45:11.341Z,1220
2019-03-22T06:46:11.655Z,1212
2019-03-22T06:47:13.337Z,1236
2019-03-22T06:48:11.398Z,1260
2019-03-22T06:49:11.417Z,1292
2019-03-22T06:50:11.707Z,1332
2019-03-22T06:51:11.722Z,1372
2019-03-22T06:52:11.733Z,1408
2019-03-22T06:53:11.779Z,1436
2019-03-22T06:54:11.514Z,1516
2019-03-22T06:55:11.787Z,1552
2019-03-22T06:56:11.815Z,1548
2019-03-22T06:57:11.564Z,1564
2019-03-22T06:58:11.586Z,1580
2019-03-22T06:59:11.870Z,1596
2019-03-22T07:00:13.785Z,1560
2019-03-22T07:01:11.657Z,1544
2019-03-22T07:02:11.657Z,1512
2019-03-22T07:03:12.196Z,1476
2019-03-22T07:04:11.698Z,1464
2019-03-22T07:05:13.536Z,1472
2019-03-22T07:06:11.733Z,1512
2019-03-22T07:07:12.011Z,1536
2019-03-22T07:08:11.513Z,1564
2019-03-22T07:09:12.058Z,1632
2019-03-22T07:10:12.077Z,1656
2019-03-22T07:11:11.926Z,1636
2019-03-22T07:12:12.170Z,1576
2019-03-22T07:13:11.873Z,1624
2019-03-22T07:14:11.625Z,1592
2019-03-22T07:15:11.902Z,1620
2019-03-22T07:16:11.921Z,1628
2019-03-22T07:17:12.468Z,1656
2019-03-22T07:18:11.750Z,1596
2019-03-22T07:19:11.975Z,1592
2019-03-22T07:20:12.082Z,1644
2019-03-22T07:21:12.269Z,1620
2019-03-22T07:22:12.296Z,1656
2019-03-22T07:23:12.316Z,1668
2019-03-22T07:24:12.072Z,1648
2019-03-22T07:25:12.097Z,1644
2019-03-22T07:26:12.110Z,1648
2019-03-22T07:27:12.389Z,1636
2019-03-22T07:28:12.147Z,1664
2019-03-22T07:29:12.202Z,1664
2019-03-22T07:30:24.658Z,1688
2019-03-22T07:31:12.209Z,1708
2019-03-22T07:32:12.490Z,1596
2019-03-22T07:33:11.976Z,1644
2019-03-22T07:34:12.266Z,1696
2019-03-22T07:35:12.277Z,1688
2019-03-22T07:36:12.038Z,1684
2019-03-22T07:37:12.840Z,1696
2019-03-22T07:38:12.076Z,1644
2019-03-22T07:39:12.351Z,1708
2019-03-22T07:40:12.905Z,1720
2019-03-22T07:41:12.136Z,1840
2019-03-22T07:42:12.414Z,1896
2019-03-22T07:43:12.693Z,1936
2019-03-22T07:44:12.192Z,1976
2019-03-22T07:45:12.741Z,1988
2019-03-22T07:46:12.754Z,1968
2019-03-22T07:47:12.767Z,1936
2019-03-22T07:48:12.272Z,1968
2019-03-22T07:49:13.067Z,1976
2019-03-22T07:50:12.298Z,1996
2019-03-22T07:51:12.846Z,2016
2019-03-22T07:52:12.596Z,2036
2019-03-22T07:53:12.882Z,1992
2019-03-22T07:54:12.641Z,1940
2019-03-22T07:55:12.977Z,1984
2019-03-22T07:56:12.412Z,1944
2019-03-22T07:57:12.957Z,1940
2019-03-22T07:58:12.984Z,1920
2019-03-22T07:59:14.766Z,1844
2019-03-22T08:00:13.019Z,1784
2019-03-22T08:01:13.027Z,1684
2019-03-22T08:02:12.794Z,1644
2019-03-22T08:03:13.081Z,1564
2019-03-22T08:04:12.827Z,1576
2019-03-22T08:05:12.849Z,1552
2019-03-22T08:06:12.879Z,1504
2019-03-22T08:07:13.422Z,1444
2019-03-22T08:08:12.911Z,1440
2019-03-22T08:09:12.947Z,1352
2019-03-22T08:10:13.218Z,1344
2019-03-22T08:11:13.276Z,1276
2019-03-22T08:12:12.989Z,1332
2019-03-22T08:13:13.016Z,1480
2019-03-22T08:14:13.356Z,1512
2019-03-22T08:15:15.269Z,1580
2019-03-22T08:16:13.113Z,1544
2019-03-22T08:17:13.150Z,1592
2019-03-22T08:18:13.114Z,1624
2019-03-22T08:19:13.135Z,1644
2019-03-22T08:20:13.709Z,1656
2019-03-22T08:21:13.455Z,1636
2019-03-22T08:22:13.458Z,1628
2019-03-22T08:23:13.252Z,1532
2019-03-22T08:24:13.216Z,1560
2019-03-22T08:25:13.858Z,1552
2019-03-22T08:26:13.273Z,1544
2019-03-22T08:27:13.295Z,1532
2019-03-22T08:28:13.331Z,1544
2019-03-22T08:29:13.619Z,1560
2019-03-22T08:30:13.394Z,1580
2019-03-22T08:31:13.572Z,1576
2019-03-22T08:32:13.370Z,1576
2019-03-22T08:33:13.683Z,1576
2019-03-22T08:34:13.420Z,1464
2019-03-22T08:35:14.058Z,1580
2019-03-22T08:36:14.899Z,1580
2019-03-22T08:37:13.523Z,1572
2019-03-22T08:38:13.765Z,1580
2019-03-22T08:39:13.525Z,1576
2019-03-22T08:40:14.066Z,1544
2019-03-22T08:41:13.548Z,1540
2019-03-22T08:42:13.618Z,1552
2019-03-22T08:43:13.662Z,1528
2019-03-22T08:44:13.913Z,1568
2019-03-22T08:45:16.034Z,1564
2019-03-22T08:46:14.042Z,1540
2019-03-22T08:47:13.744Z,1544
2019-03-22T08:48:13.429Z,1560
2019-03-22T08:49:16.561Z,1568
2019-03-22T08:50:14.288Z,1572
2019-03-22T08:51:13.821Z,1572
2019-03-22T08:52:14.328Z,1572
2019-03-22T08:53:14.052Z,1572
2019-03-22T08:54:13.534Z,1552
2019-03-22T08:55:13.940Z,1536
2019-03-22T08:56:13.896Z,1528
2019-03-22T08:57:13.905Z,1532
2019-03-22T08:58:13.869Z,1544
2019-03-22T08:59:15.992Z,1552
2019-03-22T09:00:14.479Z,1568
2019-03-22T09:01:14.499Z,1576
2019-03-22T09:02:15.285Z,1580
2019-03-22T09:03:13.753Z,1580
2019-03-22T09:04:14.306Z,1576
2019-03-22T09:05:14.359Z,1568
2019-03-22T09:06:14.777Z,1568
2019-03-22T09:07:14.425Z,1564
2019-03-22T09:08:16.055Z,1560
2019-03-22T09:09:14.418Z,1564
2019-03-22T09:10:14.675Z,1556
2019-03-22T09:11:14.679Z,1556
2019-03-22T09:12:14.415Z,1552
2019-03-22T09:13:14.220Z,1552
2019-03-22T09:14:14.010Z,1548
2019-03-22T09:15:14.519Z,1544
2019-03-22T09:16:14.531Z,1544
2019-03-22T09:17:14.682Z,1540
2019-03-22T09:18:15.577Z,1540
2019-03-22T09:19:14.808Z,1544
2019-03-22T09:20:14.125Z,1536
2019-03-22T09:21:14.155Z,1540
2019-03-22T09:22:14.400Z,1540
2019-03-22T09:23:14.945Z,1540
2019-03-22T09:24:14.498Z,1532
2019-03-22T09:25:14.465Z,1524
2019-03-22T09:26:14.717Z,1516
2019-03-22T09:27:14.241Z,1512
2019-03-22T09:28:17.549Z,1520
2019-03-22T09:29:14.793Z,1524
2019-03-22T09:30:14.335Z,1520
2019-03-22T09:31:18.107Z,1516
2019-03-22T09:32:14.547Z,1516
2019-03-22T09:33:15.675Z,1520
2019-03-22T09:34:14.893Z,1524
2019-03-22T09:35:14.890Z,1520
2019-03-22T09:36:14.429Z,1512
2019-03-22T09:37:16.042Z,1512
2019-03-22T09:38:20.338Z,1516
2019-03-22T09:39:15.048Z,1516
2019-03-22T09:40:15.494Z,1508
2019-03-22T09:41:14.495Z,1504
2019-03-22T09:42:14.783Z,1504
2019-03-22T09:43:15.296Z,1492
2019-03-22T09:44:15.389Z,1488
2019-03-22T09:45:16.734Z,1492
2019-03-22T09:46:15.426Z,1492
2019-03-22T09:47:16.496Z,1492
2019-03-22T09:48:14.993Z,1504
2019-03-22T09:49:15.487Z,1512
2019-03-22T09:50:15.255Z,1508
2019-03-22T09:51:15.535Z,1504
2019-03-22T09:52:15.007Z,1512
2019-03-22T09:53:15.000Z,1516
2019-03-22T09:54:15.027Z,1508
2019-03-22T09:55:21.176Z,1504
2019-03-22T09:56:15.108Z,1500
2019-03-22T09:57:15.688Z,1496
2019-03-22T09:58:15.120Z,1492
2019-03-22T09:59:15.152Z,1488
2019-03-22T10:00:15.392Z,1492
2019-03-22T10:01:27.567Z,1488
2019-03-22T10:02:15.289Z,1484
2019-03-22T10:03:15.199Z,1484
2019-03-22T10:04:15.424Z,1480
2019-03-22T10:05:14.998Z,1476
2019-03-22T10:06:15.254Z,1476
2019-03-22T10:07:15.397Z,1476
2019-03-22T10:08:15.727Z,1476
2019-03-22T10:09:15.607Z,1480
2019-03-22T10:10:15.401Z,1476
2019-03-22T10:11:15.099Z,1476
2019-03-22T10:12:15.748Z,1472
2019-03-22T10:13:15.560Z,1464
2019-03-22T10:14:15.430Z,1460
2019-03-22T10:15:15.529Z,1464
2019-03-22T10:16:15.682Z,1456
2019-03-22T10:17:15.449Z,1452
2019-03-22T10:18:15.531Z,1448
2019-03-22T10:19:15.515Z,1448
2019-03-22T10:20:15.800Z,1444
2019-03-22T10:21:28.299Z,1448
2019-03-22T10:22:15.642Z,1444
2019-03-22T10:23:15.963Z,1444
2019-03-22T10:24:15.675Z,1436
2019-03-22T10:25:16.272Z,1428
2019-03-22T10:26:15.718Z,1428
2019-03-22T10:27:15.928Z,1424
2019-03-22T10:28:15.482Z,1416
2019-03-22T10:29:15.725Z,1416
2019-03-22T10:30:15.458Z,1420
2019-03-22T10:31:15.787Z,1424
2019-03-22T10:32:16.000Z,1424
2019-03-22T10:33:28.902Z,1420
2019-03-22T10:34:16.365Z,1416
2019-03-22T10:35:29.191Z,1416
2019-03-22T10:36:15.826Z,1412
2019-03-22T10:37:16.116Z,1404
2019-03-22T10:38:35.848Z,1400
2019-03-22T10:39:16.039Z,1396
2019-03-22T10:40:16.620Z,1396
2019-03-22T10:41:16.301Z,1404
2019-03-22T10:42:16.305Z,1404
2019-03-22T10:43:16.263Z,1400
2019-03-22T10:44:15.732Z,1404
2019-03-22T10:45:16.431Z,1404
2019-03-22T10:46:15.855Z,1408
2019-03-22T10:47:18.020Z,1408
2019-03-22T10:48:16.524Z,1396
2019-03-22T10:49:16.103Z,1400
2019-03-22T10:50:16.474Z,1404
2019-03-22T10:51:16.080Z,1408
2019-03-22T10:52:16.287Z,1412
2019-03-22T10:53:16.104Z,1412
2019-03-22T10:54:16.324Z,1416
2019-03-22T10:55:37.780Z,1420
2019-03-22T10:56:16.040Z,1420
2019-03-22T10:57:16.478Z,1420
2019-03-22T10:58:27.646Z,1428
2019-03-22T10:59:16.258Z,1432
2019-03-22T11:00:16.308Z,1432
2019-03-22T11:01:16.554Z,1432
2019-03-22T11:02:16.313Z,1432
2019-03-22T11:03:16.074Z,1432
2019-03-22T11:04:16.090Z,1432
2019-03-22T11:05:16.384Z,1428
2019-03-22T11:06:25.451Z,1436
2019-03-22T11:07:16.724Z,1440
2019-03-22T11:08:16.690Z,1432
2019-03-22T11:09:16.463Z,1424
2019-03-22T11:10:19.970Z,1424
2019-03-22T11:11:16.492Z,1416
2019-03-22T11:12:19.069Z,1412
2019-03-22T11:13:16.530Z,1412
2019-03-22T11:14:16.550Z,1408
2019-03-22T11:15:16.315Z,1404
2019-03-22T11:16:16.628Z,1396
2019-03-22T11:17:16.877Z,1416
2019-03-22T11:18:16.903Z,1428
2019-03-22T11:19:16.933Z,1436
2019-03-22T11:20:16.943Z,1452
2019-03-22T11:21:16.961Z,1464
2019-03-22T11:22:16.974Z,1472
2019-03-22T11:23:17.264Z,1476
2019-03-22T11:24:17.022Z,1472
2019-03-22T11:25:16.771Z,1476
2019-03-22T11:26:16.798Z,1488
2019-03-22T11:27:18.725Z,1488
2019-03-22T11:28:18.527Z,1484
2019-03-22T11:29:17.120Z,1484
2019-03-22T11:30:16.878Z,1480
2019-03-22T11:31:17.156Z,1492
2019-03-22T11:32:20.044Z,1504
2019-03-22T11:33:17.230Z,1520
2019-03-22T11:34:17.477Z,1544
2019-03-22T11:35:16.982Z,1560
2019-03-22T11:36:17.266Z,1564
2019-03-22T11:37:17.015Z,1568
2019-03-22T11:38:17.312Z,1576
2019-03-22T11:39:22.856Z,1580
2019-03-22T11:40:17.079Z,1568
2019-03-22T11:41:17.094Z,1560
2019-03-22T11:42:17.118Z,1568
2019-03-22T11:43:17.408Z,1572
2019-03-22T11:44:16.899Z,1556
2019-03-22T11:45:17.189Z,1568
2019-03-22T11:46:17.472Z,1576
2019-03-22T11:47:17.480Z,1588
2019-03-22T11:48:17.499Z,1600
2019-03-22T11:49:17.526Z,1612
2019-03-22T11:50:17.300Z,1620
2019-03-22T11:51:17.300Z,1624
2019-03-22T11:52:17.584Z,1632
2019-03-22T11:53:17.347Z,1644
2019-03-22T11:54:17.359Z,1648
2019-03-22T11:55:17.386Z,1672
2019-03-22T11:56:17.140Z,1664
2019-03-22T11:57:17.440Z,1660
2019-03-22T11:58:17.444Z,1660
2019-03-22T11:59:17.461Z,1660
2019-03-22T12:00:17.484Z,1672
2019-03-22T12:01:27.541Z,1696
2019-03-22T12:02:26.885Z,1720
2019-03-22T12:03:17.570Z,1736
2019-03-22T12:04:18.741Z,1748
2019-03-22T12:05:17.591Z,1760
2019-03-22T12:06:17.609Z,1748
2019-03-22T12:07:19.589Z,1760
2019-03-22T12:08:17.646Z,1768
2019-03-22T12:09:17.675Z,1764
2019-03-22T12:10:17.960Z,1776
2019-03-22T12:11:17.977Z,1792
2019-03-22T12:12:17.734Z,1776
2019-03-22T12:13:17.485Z,1756
2019-03-22T12:14:18.034Z,1740
2019-03-22T12:15:18.056Z,1740
2019-03-22T12:16:17.811Z,1760
2019-03-22T12:17:18.094Z,1772
2019-03-22T12:18:18.126Z,1784
2019-03-22T12:19:17.607Z,1780
2019-03-22T12:20:18.153Z,1772
2019-03-22T12:21:18.179Z,1772
2019-03-22T12:22:18.220Z,1784
2019-03-22T12:23:18.484Z,1800
2019-03-22T12:24:18.769Z,1816
2019-03-22T12:25:18.034Z,1836
2019-03-22T12:26:18.281Z,1844
2019-03-22T12:27:18.305Z,1852
2019-03-22T12:28:17.818Z,1864
2019-03-22T12:29:18.082Z,1868
2019-03-22T12:30:17.837Z,1880
2019-03-22T12:31:19.464Z,1880
2019-03-22T12:32:18.146Z,1880
2019-03-22T12:33:18.423Z,1876
2019-03-22T12:34:18.439Z,1880
2019-03-22T12:35:18.201Z,1904
2019-03-22T12:36:18.233Z,1932
2019-03-22T12:37:18.251Z,1956
2019-03-22T12:38:18.048Z,1964
2019-03-22T12:39:18.364Z,1972
2019-03-22T12:40:18.303Z,1972
2019-03-22T12:41:18.332Z,1996
2019-03-22T12:42:18.356Z,2004
2019-03-22T12:43:18.899Z,1980
2019-03-22T12:44:18.126Z,1956
2019-03-22T12:45:18.409Z,1960
2019-03-22T12:46:18.428Z,1988
2019-03-22T12:47:18.731Z,1980
2019-03-22T12:48:18.477Z,1980
2019-03-22T12:49:19.032Z,1980
2019-03-22T12:50:18.244Z,1996
2019-03-22T12:51:18.811Z,2024
2019-03-22T12:52:19.075Z,2040
2019-03-22T12:53:18.629Z,2052
2019-03-22T12:54:18.860Z,2060
2019-03-22T12:55:18.357Z,2068
2019-03-22T12:56:18.899Z,2068
2019-03-22T12:57:18.657Z,2064
2019-03-22T12:58:18.994Z,2052
2019-03-22T12:59:18.964Z,2044
2019-03-22T13:00:18.718Z,2040
2019-03-22T13:01:18.743Z,2040
2019-03-22T13:02:18.763Z,2056
2019-03-22T13:03:18.830Z,2064
2019-03-22T13:04:18.549Z,2108
2019-03-22T13:05:18.824Z,2136
2019-03-22T13:06:19.104Z,2156
2019-03-22T13:07:18.867Z,2176
2019-03-22T13:08:19.156Z,2184
2019-03-22T13:09:18.919Z,2204
2019-03-22T13:10:18.925Z,2204
2019-03-22T13:11:18.947Z,2188
2019-03-22T13:12:19.235Z,2172
2019-03-22T13:13:19.577Z,2168
2019-03-22T13:14:18.802Z,2180
2019-03-22T13:15:19.030Z,2172
2019-03-22T13:16:18.786Z,2168
2019-03-22T13:17:19.605Z,2164
2019-03-22T13:18:19.411Z,2160
2019-03-22T13:19:19.116Z,2196
2019-03-22T13:20:19.159Z,2240
2019-03-22T13:21:18.893Z,2268
2019-03-22T13:22:19.188Z,2256
2019-03-22T13:23:18.989Z,2236
2019-03-22T13:24:19.248Z,2248
2019-03-22T13:25:21.074Z,2244
2019-03-22T13:26:19.523Z,2248
2019-03-22T13:27:19.302Z,2264
2019-03-22T13:28:19.622Z,2276
2019-03-22T13:29:19.329Z,2292
2019-03-22T13:30:19.870Z,2316
2019-03-22T13:31:19.374Z,2344
2019-03-22T13:32:19.661Z,2352
2019-03-22T13:33:19.720Z,2352
2019-03-22T13:34:19.172Z,2356
2019-03-22T13:35:19.718Z,2360
2019-03-22T13:36:21.399Z,2388
2019-03-22T13:37:19.325Z,2408
2019-03-22T13:38:19.831Z,2400
2019-03-22T13:39:20.066Z,2392
2019-03-22T13:40:19.558Z,2424
2019-03-22T13:41:19.585Z,2460
2019-03-22T13:42:19.863Z,2500
2019-03-22T13:43:19.624Z,2508
2019-03-22T13:44:19.906Z,2484
2019-03-22T13:45:19.670Z,2488
2019-03-22T13:46:19.691Z,2496
2019-03-22T13:47:19.489Z,2516
2019-03-22T13:48:19.786Z,2544
2019-03-22T13:49:20.076Z,2568
2019-03-22T13:50:19.775Z,2576
2019-03-22T13:51:20.168Z,2612
2019-03-22T13:52:21.345Z,2628